Time;durP1;ratioP1;P1;durP2;ratioP2;P2;SDS_P1;SDS_P2;PMS_P1;PMS_P2;Temp;Humidity;BMP_temperature;BMP_pressure;BME280_temperature;BME280_humidity;BME280_pressure;Samples;Min_cycle;Max_cycle;Signal;HPM_P1;HPM_P2
2021/01/14 00:00:27;;;;;;;8.45;4.57;;;2.60;99.90;;;;;;5040736;28;20476;-71
2021/01/14 00:02:54;;;;;;;8.07;4.32;;;2.60;99.90;;;;;;5041569;28;20136;-70
2021/01/14 00:05:21;;;;;;;7.32;4.03;;;2.70;99.90;;;;;;5044650;28;20442;-70
2021/01/14 00:07:49;;;;;;;5.82;2.80;;;2.70;99.90;;;;;;5040534;28;20130;-70
2021/01/14 00:10:16;;;;;;;7.53;3.78;;;2.70;99.90;;;;;;5046114;28;20053;-69
2021/01/14 00:12:44;;;;;;;8.02;4.10;;;2.60;99.90;;;;;;5046862;28;20051;-68
2021/01/14 00:15:12;;;;;;;5.55;3.45;;;2.70;99.90;;;;;;5045066;28;20132;-69
2021/01/14 00:17:39;;;;;;;5.57;3.20;;;2.70;99.90;;;;;;5047002;28;20055;-69
2021/01/14 00:20:12;;;;;;;5.05;3.00;;;2.70;99.90;;;;;;5049688;28;20072;-69
2021/01/14 00:22:38;;;;;;;6.28;3.78;;;2.70;99.90;;;;;;5052269;28;20453;-69
2021/01/14 00:25:07;;;;;;;5.00;2.83;;;2.60;99.90;;;;;;5043654;28;20360;-69
2021/01/14 00:27:33;;;;;;;5.90;3.03;;;2.70;99.90;;;;;;5047727;28;20072;-69
2021/01/14 00:30:00;;;;;;;5.97;3.70;;;2.70;99.90;;;;;;5046639;28;20085;-69
2021/01/14 00:32:26;;;;;;;5.03;3.20;;;2.70;99.90;;;;;;5050177;28;20131;-69
2021/01/14 00:34:52;;;;;;;5.38;3.20;;;2.70;99.90;;;;;;5049525;28;20053;-69
2021/01/14 00:40:04;;;;;;;7.80;3.17;;;2.60;99.90;;;;;;5048315;28;20071;-68
2021/01/14 00:42:32;;;;;;;5.80;3.28;;;2.70;99.90;;;;;;5051052;28;20050;-69
2021/01/14 00:45:00;;;;;;;5.45;3.08;;;2.70;99.90;;;;;;5046416;28;20148;-69
2021/01/14 00:47:33;;;;;;;6.15;3.10;;;2.70;99.90;;;;;;5046451;28;20079;-68
2021/01/14 00:49:59;;;;;;;5.38;3.03;;;2.70;99.90;;;;;;5043172;28;20053;-69
2021/01/14 00:52:25;;;;;;;4.72;2.85;;;2.70;99.90;;;;;;5047498;28;20052;-69
2021/01/14 00:54:51;;;;;;;8.07;3.47;;;2.70;99.90;;;;;;5046071;28;20052;-68
2021/01/14 00:57:18;;;;;;;8.00;3.50;;;2.70;99.90;;;;;;5047529;28;20136;-69
2021/01/14 00:59:44;;;;;;;6.68;3.08;;;2.60;99.90;;;;;;5051122;28;20139;-68
2021/01/14 01:02:13;;;;;;;6.00;3.17;;;2.60;99.90;;;;;;5042187;28;20068;-69
2021/01/14 01:04:43;;;;;;;4.95;2.80;;;2.60;99.90;;;;;;5042864;28;20041;-69
2021/01/14 01:07:11;;;;;;;5.95;2.85;;;2.60;99.90;;;;;;5048665;28;20073;-69
2021/01/14 01:09:38;;;;;;;5.18;2.63;;;2.60;99.90;;;;;;5050230;28;20068;-69
2021/01/14 01:12:05;;;;;;;6.47;2.95;;;2.60;99.90;;;;;;5050762;28;20128;-69
2021/01/14 01:14:31;;;;;;;5.43;2.58;;;2.50;99.90;;;;;;5043424;28;20055;-69
2021/01/14 01:16:58;;;;;;;6.32;2.60;;;2.50;99.90;;;;;;5049559;28;20431;-69
2021/01/14 01:19:24;;;;;;;5.75;3.00;;;2.60;99.90;;;;;;5046057;28;20069;-68
2021/01/14 01:21:50;;;;;;;4.50;2.58;;;2.60;99.90;;;;;;5048960;28;20134;-68
2021/01/14 01:24:17;;;;;;;5.03;2.30;;;2.50;99.90;;;;;;5047846;28;20045;-68
2021/01/14 01:26:43;;;;;;;4.10;2.30;;;2.60;99.90;;;;;;5048661;28;20064;-68
2021/01/14 01:29:09;;;;;;;4.70;2.65;;;2.50;99.90;;;;;;5041929;28;20045;-69
2021/01/14 01:31:39;;;;;;;6.72;3.10;;;2.50;99.90;;;;;;5047791;28;20110;-69
2021/01/14 01:34:05;;;;;;;4.78;2.42;;;2.50;99.90;;;;;;5040584;28;20053;-69
2021/01/14 01:36:32;;;;;;;5.03;2.83;;;2.50;99.90;;;;;;5048949;28;20080;-68
2021/01/14 01:38:58;;;;;;;5.03;2.75;;;2.40;99.90;;;;;;5041312;28;20467;-69
2021/01/14 01:41:25;;;;;;;6.28;3.10;;;2.50;99.90;;;;;;5046255;28;20041;-69
2021/01/14 01:43:51;;;;;;;5.15;3.00;;;2.50;99.90;;;;;;5051169;28;20079;-69
2021/01/14 01:46:26;;;;;;;5.93;3.20;;;2.50;99.90;;;;;;5033336;28;20409;-69
2021/01/14 01:48:55;;;;;;;5.78;3.40;;;2.50;99.90;;;;;;5042265;28;20131;-69
2021/01/14 01:51:23;;;;;;;7.20;3.70;;;2.40;99.90;;;;;;5038569;28;20156;-69
2021/01/14 01:53:49;;;;;;;6.85;3.40;;;2.40;99.90;;;;;;5033564;28;20084;-69
2021/01/14 01:56:17;;;;;;;9.90;3.85;;;2.40;99.90;;;;;;5046496;28;20132;-70
2021/01/14 01:58:45;;;;;;;6.57;2.92;;;2.30;99.90;;;;;;5042346;28;20124;-69
2021/01/14 02:01:12;;;;;;;6.35;3.38;;;2.30;99.90;;;;;;5038025;28;20132;-68
2021/01/14 02:03:38;;;;;;;6.03;3.22;;;2.30;99.90;;;;;;5032642;28;20703;-69
2021/01/14 02:06:05;;;;;;;9.15;3.80;;;2.30;99.90;;;;;;5041338;28;20053;-68
2021/01/14 02:09:11;;;;;;;7.78;3.78;;;2.30;99.90;;;;;;5044607;28;20477;-70
2021/01/14 02:11:43;;;;;;;10.85;3.78;;;2.30;99.90;;;;;;5043497;28;20071;-69
2021/01/14 02:14:24;;;;;;;8.60;3.65;;;2.30;99.90;;;;;;5042208;28;20393;-70
2021/01/14 02:16:52;;;;;;;8.45;3.80;;;2.30;99.90;;;;;;5035226;28;20087;-69
2021/01/14 02:19:32;;;;;;;10.98;4.00;;;2.30;99.90;;;;;;5036839;28;20519;-69
2021/01/14 02:22:12;;;;;;;8.65;3.90;;;2.30;99.90;;;;;;5029818;28;20484;-69
2021/01/14 02:25:14;;;;;;;9.23;4.75;;;2.40;99.90;;;;;;5041197;28;20127;-69
2021/01/14 02:27:42;;;;;;;9.13;4.22;;;2.40;99.90;;;;;;5031975;28;20151;-69
2021/01/14 02:30:12;;;;;;;9.23;3.88;;;2.30;99.90;;;;;;5039181;28;20083;-69
2021/01/14 02:32:42;;;;;;;10.82;3.95;;;2.30;99.90;;;;;;5031394;28;20045;-70
2021/01/14 02:35:09;;;;;;;9.77;4.97;;;2.20;99.90;;;;;;5042755;28;20507;-69
2021/01/14 02:37:36;;;;;;;9.85;5.00;;;2.20;99.90;;;;;;5029436;28;20091;-69
2021/01/14 02:40:03;;;;;;;7.03;4.25;;;2.20;99.90;;;;;;5030836;28;20571;-69
2021/01/14 02:42:29;;;;;;;11.90;5.85;;;2.10;99.90;;;;;;5038720;28;20122;-69
2021/01/14 02:44:57;;;;;;;11.30;5.63;;;2.10;99.90;;;;;;5047296;28;20072;-69
2021/01/14 02:47:24;;;;;;;10.50;5.22;;;2.10;99.90;;;;;;5031769;28;20049;-68
2021/01/14 02:49:57;;;;;;;8.95;4.10;;;2.10;99.90;;;;;;5033061;28;20140;-69
2021/01/14 02:52:27;;;;;;;9.35;4.30;;;2.00;99.90;;;;;;5032998;28;20048;-69
2021/01/14 02:54:56;;;;;;;9.15;5.20;;;2.00;99.90;;;;;;5031887;28;20124;-69
2021/01/14 02:57:25;;;;;;;10.20;4.75;;;1.90;99.90;;;;;;5029691;28;20136;-69
2021/01/14 02:59:53;;;;;;;11.93;5.45;;;1.90;99.90;;;;;;5031511;28;20083;-68
2021/01/14 03:02:20;;;;;;;9.43;5.07;;;2.00;99.90;;;;;;5031194;28;20140;-69
2021/01/14 03:04:47;;;;;;;10.68;5.18;;;2.00;99.90;;;;;;5033802;28;20301;-69
2021/01/14 03:07:14;;;;;;;9.00;4.88;;;1.90;99.90;;;;;;5043770;28;20123;-70
2021/01/14 03:09:40;;;;;;;14.30;6.40;;;1.90;99.90;;;;;;5033035;28;20037;-68
2021/01/14 03:12:06;;;;;;;12.20;6.60;;;1.90;99.90;;;;;;5037434;28;20514;-68
2021/01/14 03:14:33;;;;;;;9.70;4.95;;;1.90;99.90;;;;;;5044599;28;20048;-68
2021/01/14 03:16:59;;;;;;;12.68;5.70;;;1.90;99.90;;;;;;5034702;28;20037;-69
2021/01/14 03:19:25;;;;;;;11.77;6.07;;;1.90;99.90;;;;;;5031952;28;20452;-69
2021/01/14 03:21:58;;;;;;;13.90;6.28;;;1.80;99.90;;;;;;5038803;28;20049;-69
2021/01/14 03:24:25;;;;;;;10.75;5.40;;;1.90;99.90;;;;;;5037827;28;20125;-69
2021/01/14 03:26:52;;;;;;;11.98;6.03;;;1.80;99.90;;;;;;5031362;28;20132;-69
2021/01/14 03:29:18;;;;;;;13.77;6.30;;;1.70;99.90;;;;;;5045290;28;20086;-69
2021/01/14 03:31:44;;;;;;;11.73;6.68;;;1.60;99.90;;;;;;5039704;28;20084;-68
2021/01/14 03:34:11;;;;;;;13.55;5.75;;;1.60;99.90;;;;;;5041075;28;20557;-69
2021/01/14 03:36:56;;;;;;;10.48;5.57;;;1.60;99.90;;;;;;5037580;28;20128;-69
2021/01/14 03:39:27;;;;;;;14.48;6.88;;;1.50;99.90;;;;;;5029253;28;20136;-69
2021/01/14 03:41:55;;;;;;;10.20;5.55;;;1.50;99.90;;;;;;5044630;28;20219;-69
2021/01/14 03:44:22;;;;;;;10.48;5.55;;;1.40;99.90;;;;;;5044848;28;20047;-69
2021/01/14 03:46:49;;;;;;;16.27;7.03;;;1.20;99.90;;;;;;5044906;28;20120;-68
2021/01/14 03:49:17;;;;;;;13.43;6.90;;;1.30;99.90;;;;;;5042582;28;20080;-69
2021/01/14 03:51:44;;;;;;;13.32;6.82;;;1.30;99.90;;;;;;5040384;28;20168;-69
2021/01/14 03:54:11;;;;;;;15.25;6.90;;;1.30;99.90;;;;;;5044145;28;20525;-69
2021/01/14 03:56:39;;;;;;;19.05;8.40;;;1.30;99.90;;;;;;5027612;28;20053;-69
2021/01/14 03:59:06;;;;;;;13.77;7.22;;;1.30;99.90;;;;;;5035833;28;20110;-69
2021/01/14 04:01:33;;;;;;;15.60;8.20;;;1.30;99.90;;;;;;5039259;28;20460;-69
2021/01/14 04:04:00;;;;;;;15.32;6.95;;;1.30;99.90;;;;;;5037103;28;20137;-69
2021/01/14 04:06:35;;;;;;;12.07;6.65;;;1.30;99.90;;;;;;5036714;28;20080;-69
2021/01/14 04:09:03;;;;;;;13.50;7.00;;;1.30;99.90;;;;;;5045255;28;20124;-68
2021/01/14 04:11:29;;;;;;;17.45;8.25;;;1.30;99.90;;;;;;5044465;28;20219;-68
2021/01/14 04:13:56;;;;;;;13.85;7.82;;;1.30;99.90;;;;;;5028157;28;20080;-69
2021/01/14 04:16:22;;;;;;;14.13;6.50;;;1.30;99.90;;;;;;5027059;28;20132;-69
2021/01/14 04:18:49;;;;;;;13.57;6.95;;;1.30;99.90;;;;;;5027089;28;20129;-69
2021/01/14 04:21:16;;;;;;;14.27;6.03;;;1.30;99.90;;;;;;5028672;28;20049;-69
2021/01/14 04:23:45;;;;;;;12.32;5.82;;;1.30;99.90;;;;;;5029327;28;20045;-68
2021/01/14 04:26:12;;;;;;;15.10;6.93;;;1.40;99.90;;;;;;5030806;28;20059;-69
2021/01/14 04:28:39;;;;;;;12.50;5.90;;;1.40;99.90;;;;;;5035996;28;20080;-69
2021/01/14 04:31:06;;;;;;;17.13;8.23;;;1.40;99.90;;;;;;5040347;28;20092;-69
2021/01/14 04:33:33;;;;;;;10.48;5.35;;;1.40;99.90;;;;;;5048977;28;20140;-68
2021/01/14 04:36:00;;;;;;;13.25;6.18;;;1.50;99.90;;;;;;5038602;28;20076;-69
2021/01/14 04:38:27;;;;;;;13.15;6.45;;;1.40;99.90;;;;;;5035070;28;20081;-69
2021/01/14 04:40:59;;;;;;;11.40;6.18;;;1.40;99.90;;;;;;5039959;28;20053;-70
2021/01/14 04:43:27;;;;;;;16.05;7.47;;;1.40;99.90;;;;;;5043282;28;20124;-69
2021/01/14 04:46:04;;;;;;;13.75;6.85;;;1.40;99.90;;;;;;5043705;28;20077;-69
2021/01/14 04:48:33;;;;;;;16.65;8.40;;;1.50;99.90;;;;;;5041325;28;20045;-70
2021/01/14 04:51:07;;;;;;;24.33;10.18;;;1.50;99.90;;;;;;5039585;28;20103;-70
2021/01/14 04:53:35;;;;;;;26.00;10.68;;;1.50;99.90;;;;;;5037706;28;20546;-69
2021/01/14 04:56:07;;;;;;;28.05;11.80;;;1.30;99.90;;;;;;5044133;28;20057;-69
2021/01/14 04:58:42;;;;;;;23.67;10.65;;;1.20;99.90;;;;;;5031174;28;20057;-68
2021/01/14 05:01:19;;;;;;;15.98;7.72;;;1.10;99.90;;;;;;5033032;28;20049;-70
2021/01/14 05:03:48;;;;;;;21.73;7.95;;;1.10;99.90;;;;;;5032862;28;20037;-69
2021/01/14 05:06:22;;;;;;;20.55;8.73;;;1.20;99.90;;;;;;5039971;28;20128;-69
2021/01/14 05:08:51;;;;;;;14.85;7.47;;;1.20;99.90;;;;;;5038050;28;20415;-69
2021/01/14 05:11:18;;;;;;;11.23;5.35;;;1.20;99.90;;;;;;5048460;28;20136;-69
2021/01/14 05:13:45;;;;;;;6.60;3.53;;;1.30;99.90;;;;;;5048063;28;20487;-69
2021/01/14 05:16:13;;;;;;;7.53;3.60;;;1.30;99.90;;;;;;5037020;28;20061;-69
2021/01/14 05:18:41;;;;;;;9.30;4.63;;;1.40;99.90;;;;;;5032351;28;20132;-69
2021/01/14 05:21:07;;;;;;;12.68;5.57;;;1.40;99.90;;;;;;5037883;28;20526;-69
2021/01/14 05:23:34;;;;;;;7.38;3.97;;;1.50;99.90;;;;;;5032434;28;20512;-70
2021/01/14 05:26:01;;;;;;;9.82;5.18;;;1.50;99.90;;;;;;5034974;28;20076;-69
2021/01/14 05:28:31;;;;;;;6.80;3.65;;;1.50;99.90;;;;;;5031188;28;20049;-70
2021/01/14 05:31:17;;;;;;;8.65;3.88;;;1.60;99.90;;;;;;5042504;28;20141;-69
2021/01/14 05:33:57;;;;;;;5.20;2.83;;;1.60;99.90;;;;;;5039835;28;20062;-70
2021/01/14 05:36:24;;;;;;;6.75;3.67;;;1.60;99.90;;;;;;5032682;28;20080;-69
2021/01/14 05:38:51;;;;;;;9.15;3.88;;;1.60;99.90;;;;;;5035992;28;20162;-69
2021/01/14 05:41:27;;;;;;;6.68;4.22;;;1.60;99.90;;;;;;5033857;28;20098;-70
2021/01/14 05:43:58;;;;;;;7.40;4.30;;;1.70;99.90;;;;;;5050670;28;20041;-70
2021/01/14 05:46:30;;;;;;;10.35;5.22;;;1.70;99.90;;;;;;5036456;28;20136;-69
2021/01/14 05:49:01;;;;;;;7.32;3.72;;;1.70;99.90;;;;;;5038594;28;20541;-69
2021/01/14 05:51:34;;;;;;;10.48;4.70;;;1.70;99.90;;;;;;5037951;28;20549;-69
2021/01/14 05:54:04;;;;;;;8.95;5.20;;;1.70;99.90;;;;;;5051514;28;20135;-69
2021/01/14 05:56:33;;;;;;;11.10;6.07;;;1.70;99.90;;;;;;5042620;28;20053;-69
2021/01/14 05:59:08;;;;;;;13.38;7.03;;;1.60;99.90;;;;;;5044218;28;20045;-69
2021/01/14 06:01:35;;;;;;;9.65;5.22;;;1.60;99.90;;;;;;5040040;28;20462;-69
2021/01/14 06:04:25;;;;;;;9.07;5.47;;;1.60;99.90;;;;;;5044365;28;20049;-68
2021/01/14 06:06:53;;;;;;;11.52;6.05;;;1.60;99.90;;;;;;5033132;28;20037;-69
2021/01/14 06:09:21;;;;;;;14.65;6.25;;;1.60;99.90;;;;;;5039478;28;20080;-70
2021/01/14 06:11:49;;;;;;;15.07;7.65;;;1.60;99.90;;;;;;5040126;28;20127;-69
2021/01/14 06:14:29;;;;;;;14.73;8.00;;;1.50;99.90;;;;;;5049667;28;20103;-69
2021/01/14 06:16:59;;;;;;;18.70;8.85;;;1.40;99.90;;;;;;5038776;28;20107;-69
2021/01/14 06:19:27;;;;;;;14.75;8.57;;;1.30;99.90;;;;;;5037098;28;20049;-69
2021/01/14 06:21:57;;;;;;;25.35;9.48;;;1.20;99.90;;;;;;5042520;28;20133;-69
2021/01/14 06:24:27;;;;;;;20.85;7.85;;;1.20;99.90;;;;;;5044739;28;20049;-69
2021/01/14 06:27:08;;;;;;;18.25;8.60;;;1.20;99.90;;;;;;5039770;28;20136;-69
2021/01/14 06:29:39;;;;;;;12.30;6.10;;;1.20;99.90;;;;;;5037335;28;20103;-69
2021/01/14 06:32:08;;;;;;;14.95;6.40;;;1.20;99.90;;;;;;5030074;28;20080;-69
2021/01/14 06:34:36;;;;;;;17.60;6.50;;;1.20;99.90;;;;;;5035057;28;20517;-68
2021/01/14 06:37:18;;;;;;;12.60;4.25;;;1.20;99.90;;;;;;5037941;28;20132;-69
2021/01/14 06:39:46;;;;;;;10.18;2.97;;;1.00;99.90;;;;;;5048762;28;20124;-69
2021/01/14 06:42:17;;;;;;;9.52;3.38;;;0.90;99.90;;;;;;5039139;28;20590;-69
2021/01/14 06:44:48;;;;;;;9.80;3.28;;;0.80;99.90;;;;;;5029337;28;20080;-68
2021/01/14 06:47:34;;;;;;;9.02;3.33;;;0.80;99.90;;;;;;5043014;28;20068;-69
2021/01/14 06:50:18;;;;;;;11.95;3.70;;;0.90;99.90;;;;;;5046268;28;20482;-69
2021/01/14 06:52:53;;;;;;;11.88;3.00;;;0.90;99.90;;;;;;5030079;28;20045;-68
2021/01/14 06:55:23;;;;;;;8.63;2.28;;;1.00;99.90;;;;;;5036582;28;20135;-69
2021/01/14 06:58:02;;;;;;;8.85;2.63;;;0.90;99.90;;;;;;5032768;28;20132;-68
2021/01/14 07:00:40;;;;;;;5.68;2.70;;;0.90;99.90;;;;;;5034559;28;20041;-68
2021/01/14 07:03:19;;;;;;;6.97;2.40;;;0.80;99.90;;;;;;5047290;28;20153;-68
2021/01/14 07:05:51;;;;;;;5.25;1.70;;;0.80;99.90;;;;;;5036063;28;20129;-68
2021/01/14 07:08:41;;;;;;;5.70;2.30;;;0.80;99.90;;;;;;5036783;28;20045;-69
2021/01/14 07:11:15;;;;;;;7.95;2.80;;;0.70;99.90;;;;;;5033369;28;20386;-68
2021/01/14 07:13:45;;;;;;;7.43;3.45;;;0.70;99.90;;;;;;5040183;28;20041;-68
2021/01/14 07:16:14;;;;;;;8.55;3.67;;;0.60;99.90;;;;;;5039772;28;20183;-68
2021/01/14 07:18:41;;;;;;;10.65;4.00;;;0.50;99.90;;;;;;5035315;28;20517;-68
2021/01/14 07:21:29;;;;;;;8.32;3.53;;;0.60;99.90;;;;;;5038135;28;20650;-68
2021/01/14 07:24:18;;;;;;;10.10;2.97;;;0.60;99.90;;;;;;5035723;28;20045;-68
2021/01/14 07:26:47;;;;;;;10.73;3.70;;;0.80;99.90;;;;;;5035317;28;20044;-68
2021/01/14 07:29:14;;;;;;;10.93;3.28;;;0.80;99.90;;;;;;5029096;28;20057;-68
2021/01/14 07:31:53;;;;;;;7.43;3.17;;;0.90;99.90;;;;;;5034509;28;20053;-68
2021/01/14 07:34:40;;;;;;;10.05;3.38;;;0.90;99.90;;;;;;5046586;28;20052;-68
2021/01/14 07:37:09;;;;;;;10.32;3.85;;;1.00;99.90;;;;;;5046313;28;20103;-68
2021/01/14 07:39:47;;;;;;;7.85;4.13;;;1.00;99.90;;;;;;5033053;28;20085;-68
2021/01/14 07:42:29;;;;;;;9.80;3.63;;;1.00;99.90;;;;;;5036194;28;20072;-68
2021/01/14 07:45:04;;;;;;;7.85;3.65;;;1.00;99.90;;;;;;5034840;28;20095;-68
2021/01/14 07:47:36;;;;;;;8.10;3.10;;;1.00;99.90;;;;;;5032084;28;20407;-68
2021/01/14 07:50:28;;;;;;;10.52;4.57;;;1.10;99.90;;;;;;5033196;28;20671;-68
2021/01/14 07:52:57;;;;;;;12.77;5.10;;;1.10;99.90;;;;;;5028820;28;20664;-68
2021/01/14 07:55:27;;;;;;;15.00;7.70;;;1.10;99.90;;;;;;5043573;28;20434;-68
2021/01/14 07:58:23;;;;;;;17.80;8.60;;;1.00;99.90;;;;;;5042530;28;20094;-68
2021/01/14 08:01:03;;;;;;;15.25;8.45;;;0.80;99.90;;;;;;5038334;28;20076;-68
2021/01/14 08:03:42;;;;;;;22.40;10.98;;;0.80;99.90;;;;;;5046359;28;20061;-68
2021/01/14 08:06:35;;;;;;;15.10;7.43;;;0.80;99.90;;;;;;5034128;28;20496;-67
2021/01/14 08:09:10;;;;;;;12.32;5.95;;;0.70;99.90;;;;;;5036174;28;20151;-68
2021/01/14 08:11:45;;;;;;;14.65;6.63;;;0.60;99.90;;;;;;5043468;28;20076;-68
2021/01/14 08:14:18;;;;;;;13.88;6.35;;;0.70;99.90;;;;;;5034606;28;20061;-68
2021/01/14 08:16:51;;;;;;;11.45;5.85;;;0.70;99.90;;;;;;5046149;28;20057;-68
2021/01/14 08:19:33;;;;;;;16.98;5.88;;;0.70;99.90;;;;;;5045220;28;20053;-68
2021/01/14 08:22:05;;;;;;;11.73;5.72;;;0.80;99.90;;;;;;5033979;28;20084;-67
2021/01/14 08:24:38;;;;;;;13.15;5.47;;;1.00;99.90;;;;;;5040516;28;20041;-67
2021/01/14 08:27:25;;;;;;;11.35;5.40;;;1.00;99.90;;;;;;5037317;28;20067;-68
2021/01/14 08:30:00;;;;;;;10.48;4.85;;;1.00;99.90;;;;;;5036152;28;20052;-68
2021/01/14 08:32:43;;;;;;;15.80;8.35;;;1.10;99.90;;;;;;5047600;28;20465;-68
2021/01/14 08:35:31;;;;;;;15.38;7.78;;;1.20;99.90;;;;;;5045189;28;20052;-68
2021/01/14 08:38:07;;;;;;;53.33;25.67;;;1.00;99.90;;;;;;5036636;28;20054;-68
2021/01/14 08:40:38;;;;;;;41.13;20.40;;;0.80;99.90;;;;;;5051046;28;20045;-68
2021/01/14 08:43:05;;;;;;;13.35;3.92;;;0.90;99.90;;;;;;5047346;28;20087;-68
2021/01/14 08:45:43;;;;;;;8.27;2.90;;;1.00;99.90;;;;;;5049595;28;20045;-68
2021/01/14 08:48:09;;;;;;;11.95;4.07;;;1.00;99.90;;;;;;5034021;28;20128;-68
2021/01/14 08:50:45;;;;;;;20.20;10.32;;;1.10;99.90;;;;;;5040363;28;20133;-69
2021/01/14 08:53:17;;;;;;;19.83;9.63;;;1.30;99.90;;;;;;5036677;28;20042;-68
2021/01/14 08:56:05;;;;;;;16.75;8.98;;;1.30;99.90;;;;;;5033511;28;20565;-68
2021/01/14 08:58:45;;;;;;;20.02;9.75;;;1.20;99.90;;;;;;5041789;28;20053;-68
2021/01/14 09:01:16;;;;;;;16.48;7.97;;;1.20;99.90;;;;;;5033084;28;20503;-68
2021/01/14 09:03:43;;;;;;;20.88;8.48;;;0.90;99.90;;;;;;5047180;28;20045;-68
2021/01/14 09:06:09;;;;;;;15.02;7.30;;;0.90;99.90;;;;;;5031047;28;20096;-68
2021/01/14 09:08:35;;;;;;;15.32;7.25;;;1.10;99.90;;;;;;5030122;28;20038;-68
2021/01/14 09:11:02;;;;;;;12.88;7.30;;;1.20;99.90;;;;;;5030553;28;20484;-68
2021/01/14 09:13:31;;;;;;;15.95;8.32;;;1.30;99.90;;;;;;5030947;28;20141;-68
2021/01/14 09:16:06;;;;;;;16.42;8.50;;;1.40;99.90;;;;;;5040096;28;20053;-68
2021/01/14 09:18:36;;;;;;;20.85;7.43;;;1.40;99.90;;;;;;5039496;28;20548;-69
2021/01/14 09:21:04;;;;;;;24.63;8.95;;;1.60;99.90;;;;;;5042162;28;20139;-68
2021/01/14 09:23:32;;;;;;;19.73;7.95;;;1.50;99.90;;;;;;5050937;28;20103;-68
2021/01/14 09:26:09;;;;;;;17.65;6.68;;;1.60;99.90;;;;;;5044013;28;20583;-67
2021/01/14 09:28:35;;;;;;;15.23;6.15;;;1.70;99.90;;;;;;5045570;28;20098;-68
2021/01/14 09:31:07;;;;;;;13.18;5.20;;;1.60;99.90;;;;;;5036524;28;20135;-68
2021/01/14 09:33:35;;;;;;;14.50;5.15;;;1.70;99.90;;;;;;5048345;28;20119;-68
2021/01/14 09:36:22;;;;;;;11.07;5.00;;;1.80;99.90;;;;;;5041296;28;20111;-67
2021/01/14 09:38:51;;;;;;;9.85;3.75;;;2.10;99.90;;;;;;5046343;28;20080;-68
2021/01/14 09:41:37;;;;;;;13.10;5.35;;;2.20;99.90;;;;;;5041620;28;20130;-68
2021/01/14 09:44:09;;;;;;;10.52;4.20;;;2.10;99.90;;;;;;5038298;28;20128;-68
2021/01/14 09:46:37;;;;;;;9.82;4.28;;;2.10;99.90;;;;;;5033774;28;20141;-68
2021/01/14 09:49:06;;;;;;;8.98;4.13;;;2.00;99.90;;;;;;5045666;28;20045;-68
2021/01/14 09:51:40;;;;;;;12.52;4.65;;;2.10;99.90;;;;;;5044786;28;20099;-68
2021/01/14 09:54:08;;;;;;;13.45;5.55;;;2.20;99.90;;;;;;5036240;28;20124;-68
2021/01/14 09:56:55;;;;;;;14.07;5.65;;;2.30;99.90;;;;;;5032709;28;20334;-68
2021/01/14 09:59:38;;;;;;;19.17;8.77;;;2.30;99.90;;;;;;5037065;28;20112;-69
2021/01/14 10:02:25;;;;;;;18.88;9.90;;;2.10;99.90;;;;;;5046578;28;20128;-68
2021/01/14 10:04:56;;;;;;;20.35;9.98;;;2.00;99.90;;;;;;5039737;28;20057;-68
2021/01/14 10:07:24;;;;;;;22.25;11.57;;;2.00;99.90;;;;;;5033395;28;20046;-69
2021/01/14 10:09:52;;;;;;;19.17;9.57;;;2.00;99.90;;;;;;5038423;28;20140;-68
2021/01/14 10:12:19;;;;;;;22.55;11.40;;;2.10;99.90;;;;;;5043929;28;20079;-68
2021/01/14 10:14:45;;;;;;;15.52;8.85;;;1.90;99.90;;;;;;5040034;28;20459;-68
2021/01/14 10:17:14;;;;;;;16.05;8.27;;;1.90;99.90;;;;;;5041350;28;20075;-68
2021/01/14 10:19:50;;;;;;;18.63;9.45;;;2.00;99.90;;;;;;5046779;28;20041;-68
2021/01/14 10:22:21;;;;;;;17.77;8.75;;;1.90;99.90;;;;;;5046218;28;20148;-69
2021/01/14 10:24:48;;;;;;;17.17;7.75;;;2.10;99.90;;;;;;5038221;28;20124;-69
2021/01/14 10:27:16;;;;;;;19.35;9.23;;;2.40;99.90;;;;;;5042513;28;20064;-69
2021/01/14 10:29:43;;;;;;;20.33;9.02;;;2.60;99.90;;;;;;5044494;28;20053;-69
2021/01/14 10:32:11;;;;;;;16.55;9.60;;;2.70;99.90;;;;;;5030536;28;20053;-69
2021/01/14 10:34:45;;;;;;;13.35;8.88;;;2.90;99.90;;;;;;5041037;28;20102;-69
2021/01/14 10:37:23;;;;;;;18.17;7.82;;;3.10;99.90;;;;;;5042221;28;20060;-68
2021/01/14 10:40:17;;;;;;;17.58;6.97;;;3.10;99.90;;;;;;5040971;28;20110;-69
2021/01/14 10:42:48;;;;;;;19.67;9.23;;;2.80;99.90;;;;;;5049106;28;20067;-69
2021/01/14 10:45:23;;;;;;;15.48;8.15;;;2.50;99.90;;;;;;5030536;28;20124;-69
2021/01/14 10:47:50;;;;;;;15.35;8.25;;;2.60;99.90;;;;;;5047275;28;20078;-70
2021/01/14 10:50:20;;;;;;;20.67;11.48;;;2.70;99.90;;;;;;5037871;28;20160;-69
2021/01/14 10:53:03;;;;;;;12.25;6.22;;;2.70;99.90;;;;;;5028816;28;20049;-70
2021/01/14 10:55:31;;;;;;;9.57;4.13;;;2.60;99.90;;;;;;5038935;28;20463;-70
2021/01/14 10:58:07;;;;;;;9.02;4.70;;;2.50;99.90;;;;;;5035647;28;20052;-69
2021/01/14 11:00:38;;;;;;;8.77;3.67;;;2.50;99.90;;;;;;5031428;28;20053;-70
2021/01/14 11:03:14;;;;;;;7.93;3.10;;;2.50;99.90;;;;;;5035791;28;20056;-69
2021/01/14 11:05:42;;;;;;;11.23;3.67;;;2.50;99.90;;;;;;5043755;28;20041;-70
2021/01/14 11:08:11;;;;;;;9.85;2.97;;;2.50;99.90;;;;;;5045685;28;20148;-70
2021/01/14 11:10:39;;;;;;;8.63;3.17;;;2.40;99.90;;;;;;5047959;28;20045;-70
2021/01/14 11:13:07;;;;;;;12.63;4.18;;;2.40;99.90;;;;;;5037325;28;20514;-70
2021/01/14 11:15:34;;;;;;;13.52;3.72;;;2.10;99.90;;;;;;5028306;28;20077;-70
2021/01/14 11:18:02;;;;;;;11.60;4.30;;;2.10;99.90;;;;;;5037409;28;20049;-69
2021/01/14 11:20:29;;;;;;;12.73;4.03;;;2.10;99.90;;;;;;5041007;28;20053;-69
2021/01/14 11:22:56;;;;;;;13.73;6.05;;;2.20;99.90;;;;;;5032804;28;20045;-73
2021/01/14 11:25:23;;;;;;;10.43;4.93;;;2.40;99.90;;;;;;5053852;28;20041;-70
2021/01/14 11:27:49;;;;;;;11.02;3.97;;;2.40;99.90;;;;;;5036829;28;20077;-70
2021/01/14 11:30:16;;;;;;;9.23;4.93;;;2.50;99.90;;;;;;5043813;28;20410;-71
2021/01/14 11:32:44;;;;;;;13.35;4.75;;;2.60;99.90;;;;;;5038756;28;20049;-70
2021/01/14 11:35:11;;;;;;;15.05;6.53;;;2.70;99.90;;;;;;5042447;28;20572;-70
2021/01/14 11:37:38;;;;;;;9.82;4.75;;;2.70;99.90;;;;;;5031720;28;20049;-70
2021/01/14 11:40:05;;;;;;;10.20;5.40;;;2.70;99.90;;;;;;5030616;28;20049;-70
2021/01/14 11:42:32;;;;;;;12.82;5.90;;;2.70;99.90;;;;;;5028932;28;20510;-71
2021/01/14 11:44:58;;;;;;;10.70;6.03;;;2.60;99.90;;;;;;5045682;28;20048;-70
2021/01/14 11:47:24;;;;;;;8.48;4.07;;;2.70;99.90;;;;;;5030713;28;20084;-70
2021/01/14 11:49:51;;;;;;;9.13;3.72;;;2.70;99.90;;;;;;5044324;28;20567;-70
2021/01/14 11:52:20;;;;;;;9.88;4.45;;;2.80;99.90;;;;;;5037393;28;20152;-71
2021/01/14 11:54:47;;;;;;;11.15;3.70;;;2.90;99.90;;;;;;5045183;28;20103;-70
2021/01/14 11:57:14;;;;;;;8.38;3.53;;;2.90;99.90;;;;;;5037169;28;20510;-70
2021/01/14 11:59:41;;;;;;;8.50;3.95;;;3.00;99.90;;;;;;5032162;28;20419;-70
2021/01/14 12:02:07;;;;;;;9.95;4.53;;;2.90;99.90;;;;;;5037912;28;20080;-70
2021/01/14 12:04:34;;;;;;;15.13;5.57;;;2.90;99.90;;;;;;5050653;28;20096;-70
2021/01/14 12:07:00;;;;;;;10.40;4.47;;;2.70;99.90;;;;;;5043963;28;20519;-70
2021/01/14 12:09:27;;;;;;;10.02;4.60;;;2.70;99.90;;;;;;5043987;28;20049;-71
2021/01/14 12:11:54;;;;;;;10.90;4.78;;;2.70;99.90;;;;;;5039605;28;20112;-69
2021/01/14 12:14:21;;;;;;;12.23;6.25;;;2.60;99.90;;;;;;5032770;28;20496;-69
2021/01/14 12:16:48;;;;;;;11.18;5.07;;;2.50;99.90;;;;;;5038509;28;20045;-72
2021/01/14 12:19:14;;;;;;;11.05;4.70;;;2.50;99.90;;;;;;5047164;28;20075;-73
2021/01/14 12:21:41;;;;;;;14.98;5.22;;;2.50;99.90;;;;;;5055608;28;20639;-72
2021/01/14 12:24:07;;;;;;;11.38;4.47;;;2.60;99.90;;;;;;5034709;28;20126;-72
2021/01/14 12:26:34;;;;;;;7.95;4.20;;;2.60;99.90;;;;;;5048146;28;20041;-73
2021/01/14 12:29:03;;;;;;;13.55;5.15;;;2.70;99.90;;;;;;5040684;28;20045;-73
2021/01/14 12:31:36;;;;;;;12.00;4.18;;;2.80;99.90;;;;;;5045843;28;20095;-73
2021/01/14 12:34:02;;;;;;;10.63;3.83;;;2.80;99.90;;;;;;5046883;28;20083;-73
2021/01/14 12:36:32;;;;;;;9.57;4.28;;;2.80;99.90;;;;;;5055049;28;20071;-72
2021/01/14 12:38:59;;;;;;;11.80;5.20;;;2.90;99.90;;;;;;5045081;28;20142;-72
2021/01/14 12:41:33;;;;;;;18.67;8.00;;;2.70;99.90;;;;;;5038784;28;20049;-72
2021/01/14 12:44:02;;;;;;;18.67;8.98;;;2.40;99.90;;;;;;5034778;28;20053;-72
2021/01/14 12:46:36;;;;;;;23.95;12.65;;;2.20;99.90;;;;;;5040421;28;20495;-72
2021/01/14 12:49:04;;;;;;;25.42;12.68;;;2.20;99.90;;;;;;5038070;28;20512;-73
2021/01/14 12:51:30;;;;;;;25.35;11.02;;;2.30;99.90;;;;;;5044023;28;20103;-72
2021/01/14 12:53:57;;;;;;;26.05;13.63;;;2.30;99.90;;;;;;5045086;28;20049;-72
2021/01/14 12:56:24;;;;;;;19.38;9.68;;;2.20;99.90;;;;;;5042060;28;20053;-72
2021/01/14 12:58:51;;;;;;;21.83;9.50;;;2.20;99.90;;;;;;5046022;28;20045;-71
2021/01/14 13:01:25;;;;;;;23.40;11.23;;;2.30;99.90;;;;;;5042429;28;20119;-72
2021/01/14 13:03:52;;;;;;;14.85;8.57;;;2.40;99.90;;;;;;5035286;28;20037;-72
2021/01/14 13:06:35;;;;;;;18.95;9.32;;;2.20;99.90;;;;;;5031934;28;20107;-72
2021/01/14 13:09:09;;;;;;;18.73;7.40;;;2.10;99.90;;;;;;5043751;28;20065;-71
2021/01/14 13:11:38;;;;;;;26.60;11.20;;;2.10;99.90;;;;;;5035211;28;20175;-71